Terminal Aerodrome Forecast
Issued by NWS

Home | Current Version | Previous Version | Graphics & Text | Print | Product List | Glossary On
Versions: 1 2 3 4 5 6 7 8 9 10 11 12 13 14 15 16 17 18 19 20 21 22 23 24
000
FTUS43 KGRB 172000 AAA
TAFATW
TAF AMD
KATW 172017Z 1720/1818 30012G19KT P6SM -SN SCT025 SCT110
     FM172200 31007KT P6SM FEW035 BKN070 BKN110
     FM180600 34006KT P6SM SCT035=

USA.gov is the U.S. government's official web portal to all federal, state and local government web resources and services.